»·PEaware :: N95BW L52-L88

N95BW :: L52-L88

FLIGHT INFORMATION

Flight Status: Arrived
Operator: Privately registered:
United States
More flights under this callsign
Pilot: Robert W. (25920)
Aircraft: BELLANCA AIRCRAFT CHAMP - CITABRIA
(CH7A)
More flights by this aircraft type
Origin: L52 Oceano Co
United States
Destination: L88 New Cuyama
United States
More flights between these airports :: More routes between these airports
Route: DIRECT
File this flight plan on PilotEdge
Remarks:
Altitude:
(Current/Filed)
5,500ft
Speed:
(Current/Filed)
100kts
Departed: 18-Aug-19 12:58 PM
Arrived: 18-Aug-19 01:26 PM
Distance/Time
Traveled:
47nm/0:28
Distance/Time
To Go:
Arrived

Flight Plot

Page will automatically refresh every two minutes.


Map Options




Map Legend


Flown Route
Filed Route
Departure Airport
Arrival Airport
Navaid (VOR, NDB)
Fix

Horizontal Profiles

Position Reports

Time Latitude Longitude Heading Altitude Ground
Speed
18-Aug-19 12:42 35.102359 -120.622307 34 18ft 0kts
18-Aug-19 12:43 35.102359 -120.622306 34 18ft 0kts
18-Aug-19 12:44 35.102420 -120.622289 338 18ft 0kts
18-Aug-19 12:50 38.815431 -104.704194 222 6187ft 0kts
18-Aug-19 12:51 38.815431 -104.704195 222 6188ft 0kts
18-Aug-19 12:52 35.102359 -120.622307 216 18ft 0kts
18-Aug-19 12:53 35.102359 -120.622307 216 18ft 0kts
18-Aug-19 12:54 35.102358 -120.622308 216 18ft 0kts
18-Aug-19 12:55 35.102357 -120.622309 216 18ft 0kts
18-Aug-19 12:56 35.102648 -120.623256 301 18ft 12kts
18-Aug-19 12:57 35.098406 -120.616535 115 160ft 76kts
18-Aug-19 12:58 35.093759 -120.589375 102 1272ft 83kts
18-Aug-19 12:59 35.089399 -120.559160 102 2192ft 94kts
18-Aug-19 13:00 35.084703 -120.524779 101 3001ft 108kts
18-Aug-19 13:01 35.078749 -120.488811 103 3623ft 106kts
18-Aug-19 13:02 35.073538 -120.448922 99 3492ft 121kts
18-Aug-19 13:03 35.069225 -120.409150 99 3489ft 116kts
18-Aug-19 13:04 35.063230 -120.370817 98 3518ft 116kts
18-Aug-19 13:05 35.058261 -120.332339 106 3458ft 115kts
18-Aug-19 13:06 35.050674 -120.295646 103 3491ft 108kts
18-Aug-19 13:07 35.045627 -120.258529 97 3505ft 116kts
18-Aug-19 13:08 35.042319 -120.219620 97 3500ft 115kts
18-Aug-19 13:09 35.037589 -120.181822 100 3804ft 108kts
18-Aug-19 13:10 35.032698 -120.146857 103 4440ft 103kts
18-Aug-19 13:11 35.025364 -120.112335 108 5102ft 109kts
18-Aug-19 13:12 35.017183 -120.074510 110 5442ft 118kts
18-Aug-19 13:13 35.008111 -120.035776 106 5534ft 122kts
18-Aug-19 13:14 34.999061 -119.994598 104 5416ft 126kts
18-Aug-19 13:15 34.993769 -119.956038 97 5485ft 112kts
18-Aug-19 13:16 34.987887 -119.918042 105 5547ft 117kts
18-Aug-19 13:17 34.980496 -119.878506 107 5373ft 113kts
18-Aug-19 13:18 34.971842 -119.843001 109 5602ft 110kts
18-Aug-19 13:19 34.962115 -119.804381 106 5423ft 119kts
18-Aug-19 13:20 34.953473 -119.767912 107 5482ft 110kts
18-Aug-19 13:21 34.945304 -119.730119 105 5113ft 118kts
18-Aug-19 13:22 34.940778 -119.691106 128 4262ft 116kts
18-Aug-19 13:23 34.920736 -119.676566 107 3532ft 107kts
18-Aug-19 13:24 34.934697 -119.680970 288 2262ft 72kts
18-Aug-19 13:25 34.939366 -119.693239 329 2207ft 15kts
18-Aug-19 13:26 34.939577 -119.693242 205 2207ft 0kts
18-Aug-19 13:27 34.939577 -119.693242 205 2207ft 0kts
18-Aug-19 13:28 34.939577 -119.693242 205 2207ft 0kts
18-Aug-19 13:29 34.939577 -119.693242 205 2207ft 0kts
18-Aug-19 13:30 34.939577 -119.693242 205 2207ft 0kts
18-Aug-19 13:31 34.939577 -119.693242 205 2207ft 0kts
18-Aug-19 13:32 34.939577 -119.693242 205 2207ft 0kts
18-Aug-19 13:33 34.939577 -119.693242 205 2207ft 0kts
18-Aug-19 13:34 34.939577 -119.693242 205 2207ft 0kts
18-Aug-19 13:35 34.939577 -119.693242 205 2207ft 0kts
18-Aug-19 13:36 34.939577 -119.693242 205 2207ft 0kts
18-Aug-19 13:37 34.939577 -119.693242 205 2207ft 0kts
18-Aug-19 13:38 34.939577 -119.693242 205 2207ft 0kts
18-Aug-19 13:39 34.939577 -119.693242 205 2207ft 0kts

Navigation Log

Ident Type
Flight plan parsing failed, navigation log unavailable